LEIBLEST

Guest
Details From LEIB - Ibiza
To LEST - Santiago
Flight Number -
Tags Generated
Created
Modified
Stats Distance 506 nm / 938 km
Max Altitude 0 ft / 0 m
Waypoints 4
Social Downloads 2
Likes 0
Share VATSIM

Download

Looking for another format? Having issues loading an existing format? Contact us
Advertisement - Login to hide

Notes

Generated

Route

LEIB TAGOM SNO LEST

ID Type Via Altitude Latitude Longitude Leg Dist Tot Dist Heading (true) Name
O LEIB APT - 0 ft / 0 m 38.86694˚ 1.35887˚ - 0 nm - -
TAGOM FIX - 0 ft / 0 m 40.98353˚ -3.42608˚ 254 nm 254 nm 301° / 298° -
SNO NDB - 0 ft / 0 m 42.90776˚ -8.42845˚ 251 nm 505 nm 299° / 296° SANTIAGO NDB
O LEST APT - 0 ft / 0 m 42.91177˚ -8.42043˚ 0 nm 506 nm 56° / 56° -

Altitude Profile

Advertisement - Login to hide

Weather


0- 5 10 15 20 25 30 35+ Temperature / ° C

Clouds and Precipitation
Forecast for 2017-12-16 18:00 UTC. Updated 9 minutes ago

Ground ~20,000 ft ~40,000 ft Winds

LEIB

Details ICAO LEIB (IBZ)
Name Ibiza
Region Spain
Timezone Europe/Madrid (UTC+1.0)
Stats Elevation 20 ft / 6 m (AMSL)
Location 38.872871° 1.373045°
Runways 1
Magnetic Variation 0.663° E

METAR

LEIB 161300Z 34014KT 310V010 9999 FEW035 14/04 Q1017 WS R06 NOSIG

Decode

TAF

TAF LEIB 160800Z 1609/1709 34012KT 9999 FEW030 TX15/1612Z TN05/1706Z TEMPO 1609/1614 32014G24KT TEMPO 1617/1701 33004KT

Decode

Departure Runways

ID Width Length Bearing (true) Bearing (mag) Surface Threshold Offset Overrun Length
06 148 ft / 45 m 9,153 ft / 2,790 m 61.85° 61.19° Asphalt 0 ft / 0 m 213 ft / 65 m
24 148 ft / 45 m 9,153 ft / 2,790 m 241.86° 241.20° Asphalt 0 ft / 0 m 197 ft / 60 m

LEST

Details ICAO LEST (SCQ)
Name Santiago
Region Spain
Timezone Europe/Madrid (UTC+1.0)
Stats Elevation 1,169 ft / 356 m (AMSL)
Location 42.897797° -8.415691°
Runways 1
Magnetic Variation 2.370° W

METAR

LEST 161300Z VRB02KT 9999 BCFG FEW007 09/05 Q1027 TEMPO NSW

Decode

TAF

TAF LEST 161100Z 1612/1712 02005KT 9999 SCT020 TX10/1614Z TN01/1706Z

Decode

Destination Runways

ID Width Length Bearing (true) Bearing (mag) Surface Threshold Offset Overrun Length
17 148 ft / 45 m 10,509 ft / 3,203 m 166.04° 168.41° Asphalt 394 ft / 120 m 0 ft / 0 m
35 148 ft / 45 m 10,509 ft / 3,203 m 346.05° 348.42° Asphalt 0 ft / 0 m 197 ft / 60 m

Approach Navaids

Runway Type Ident Frequency Range Bearing (true) Bearing (mag) Slope Elevation
17 Localiser IGO 110.30 MHz 18 nm / 33 km 166.06° 168.43° - 1,171 ft / 357 m (AMSL)
17 Glidescope IGO 110.30 MHz 10 nm / 19 km 166.04° 168.42° 3.00° 1,171 ft / 357 m (AMSL)
17 DME IGO 110.30 MHz 18 nm / 33 km - - - 1,171 ft / 357 m (AMSL)
35 Localiser ISO 111.50 MHz 18 nm / 33 km 346.20° 348.57° - 1,197 ft / 365 m (AMSL)
35 Glidescope ISO 111.50 MHz 10 nm / 19 km 346.05° 348.42° 3.00° 1,196 ft / 365 m (AMSL)
35 DME ISO 111.50 MHz 18 nm / 33 km - - - 1,196 ft / 365 m (AMSL)

Popular Alternatives